Date,TemperatureHighF,TemperatureAvgF,TemperatureLowF,DewpointHighF,DewpointAvgF,DewpointLowF,HumidityHigh,HumidityAvg,HumidityLow,PressureMaxIn,PressureMinIn,WindSpeedMaxMPH,WindSpeedAvgMPH,GustSpeedMaxMPH,PrecipitationSumIn
2013-1-1,60,53,42,58,52,42,98,97,89,30.12,29.91,0,0,0,1.32
2013-1-2,42,39,36,42,37,33,98,94,88,30.24,30.09,0,0,0,0.00
2013-1-3,50,38,33,33,26,20,90,64,37,30.33,29.82,6,0,6,0.00
2013-1-4,58,41,29,36,29,25,91,66,33,30.41,29.88,8,1,8,0.00
2013-1-5,48,41,34,43,38,31,98,88,63,30.36,30.21,5,0,5,0.37
2013-1-6,60,45,33,45,39,31,98,84,49,30.27,30.18,8,1,8,0.04
2013-1-7,64,42,28,43,33,27,98,77,35,30.30,30.15,6,0,6,0.00
2013-1-8,67,52,36,56,47,34,97,84,59,30.21,30.06,5,0,5,0.05
2013-1-9,63,58,56,62,57,55,98,98,97,30.18,30.09,5,0,5,0.45
2013-1-10,67,66,63,67,65,62,98,98,98,30.15,29.88,11,2,11,0.42
2013-1-11,68,65,61,67,64,60,98,98,98,30.06,29.94,6,0,6,0.42
2013-1-12,80,71,67,69,67,65,98,89,66,30.00,29.85,12,4,12,0.42
2013-1-13,75,60,42,68,57,41,98,91,68,30.09,29.79,15,4,15,1.08
2013-1-14,43,39,34,42,38,34,98,97,93,30.18,30.06,6,1,7,0.95
2013-1-15,41,38,36,40,38,36,98,98,97,30.09,29.97,7,1,7,0.83
2013-1-16,37,36,35,36,35,34,98,98,98,30.09,29.97,10,2,10,0.83
2013-1-17,52,39,32,39,34,30,98,84,47,30.39,30.03,12,3,12,0.83
2013-1-18,65,42,30,40,32,27,98,73,29,30.50,30.33,6,0,6,0.83
2013-1-19,67,44,28,44,36,26,95,76,42,30.33,30.18,8,1,8,0.83
2013-1-20,71,46,31,49,36,30,98,74,33,30.21,30.09,6,0,6,0.00
2013-1-21,65,45,32,48,36,30,95,73,40,30.21,30.09,8,1,8,0.00
2013-1-22,54,41,35,35,28,23,85,61,38,30.33,30.18,5,0,5,0.00
2013-1-23,73,50,34,49,40,31,90,73,35,30.33,30.18,10,1,10,0.00
2013-1-24,77,55,40,60,49,38,98,84,51,30.27,30.15,8,0,8,0.00
2013-1-25,78,61,47,59,53,46,98,77,43,30.18,30.03,12,1,12,0.00
2013-1-26,60,55,47,54,51,46,98,89,75,30.21,30.12,6,0,6,0.00
2013-1-27,78,58,46,62,51,45,98,82,43,30.24,30.15,10,1,10,0.00
2013-1-28,74,63,56,63,59,55,98,88,61,30.21,30.06,8,1,8,0.00
2013-1-29,82,71,63,67,64,62,98,81,55,30.06,29.71,18,5,18,0.00
2013-1-30,59,54,38,56,49,26,98,84,46,30.06,29.65,21,2,21,0.67
2013-1-31,64,46,30,36,29,24,91,58,26,30.21,30.06,10,1,10,0.00
2013-2-1,60,49,33,32,26,22,75,43,28,30.42,30.27,8,2,8,0.00
2013-2-2,70,42,31,43,30,23,74,63,36,30.27,30.15,9,1,9,0.00
2013-2-3,70,47,33,48,34,28,94,68,26,30.21,30.06,14,1,14,0.00
2013-2-4,61,45,37,44,35,30,84,68,39,30.09,29.91,6,1,6,0.00
2013-2-5,69,60,48,58,55,48,98,83,66,30.00,29.94,6,1,6,0.00
2013-2-6,74,56,45,59,50,44,98,85,49,30.09,29.94,7,1,7,0.25
2013-2-7,70,60,50,60,57,49,98,92,61,29.94,29.82,5,0,5,0.00
2013-2-8,60,52,43,59,50,39,98,94,73,30.18,29.91,6,0,6,0.00
2013-2-9,68,49,1,45,39,0,98,73,37,30.21,30.03,8,1,8,0.00
2013-2-10,64,59,1,64,58,0,98,96,86,30.03,29.85,10,2,12,1.66
2013-2-11,58,53,50,58,53,50,98,98,98,30.09,30.00,5,0,5,1.24
2013-2-12,52,50,49,52,50,49,98,98,97,30.09,29.74,7,1,7,1.46
2013-2-13,52,48,33,51,44,32,98,88,57,30.03,29.76,13,2,13,0.00
2013-2-14,66,44,30,45,35,29,98,75,35,30.09,30.00,8,1,8,0.00
2013-2-15,66,47,32,48,35,30,98,68,34,30.12,30.03,11,2,11,0.00
2013-2-16,53,42,29,31,22,0,100,46,28,30.24,30.12,17,3,17,0.00
2013-2-17,66,44,26,32,27,20,83,56,26,30.27,30.12,10,1,10,0.00
2013-2-18,69,56,36,57,46,32,98,72,45,30.12,29.85,19,5,19,0.70
2013-2-19,63,50,35,57,36,26,98,63,29,30.21,29.85,15,2,15,0.17
2013-2-20,61,39,33,32,27,21,81,65,26,30.24,30.03,10,0,10,0.00
2013-2-21,66,53,41,65,40,22,98,65,42,30.03,29.68,13,3,13,4.24
2013-2-22,70,56,51,60,52,40,98,87,36,29.97,29.85,6,1,6,0.62
2013-2-23,64,51,39,52,45,36,98,81,56,29.94,29.85,8,1,8,0.00
2013-2-24,76,54,34,45,39,34,98,64,29,29.97,29.74,8,1,8,0.00
2013-2-25,67,60,55,63,56,41,98,90,57,29.76,29.41,11,2,11,0.58
2013-2-26,58,46,35,51,34,31,90,65,49,29.85,29.44,12,2,12,0.00
2013-2-27,67,48,31,44,35,30,97,67,32,29.97,29.85,14,1,14,0.00
2013-2-28,58,44,34,36,30,26,92,62,33,30.06,29.97,13,2,13,0.00
2013-3-1,54,39,29,32,27,22,93,63,38,30.12,30.03,14,2,14,0.00
2013-3-2,40,34,28,30,23,17,89,65,47,30.18,30.09,14,2,14,0.00
2013-3-3,60,38,23,26,21,17,83,55,26,30.21,30.03,11,1,11,0.00
2013-3-4,76,53,30,53,38,23,89,61,31,30.06,29.82,17,4,17,0.00
2013-3-5,71,57,41,62,47,24,91,71,40,30.15,29.82,21,3,21,0.00
2013-3-6,58,44,32,30,26,22,77,51,34,30.27,30.15,12,2,12,0.00
2013-3-7,68,45,30,35,31,25,88,61,27,30.30,30.18,8,1,8,0.00
2013-3-8,76,53,32,41,35,29,92,57,23,30.27,30.09,8,1,8,0.00
2013-3-9,78,61,46,56,43,33,85,57,22,30.12,29.91,13,3,13,0.00
2013-3-10,80,65,57,64,58,54,98,79,46,29.94,29.79,20,4,20,1.04
2013-3-11,61,50,38,56,42,34,98,78,38,29.97,29.82,14,2,14,1.58
2013-3-12,66,47,32,47,33,28,98,63,27,30.18,29.97,13,1,13,0.00
2013-3-13,64,46,37,34,29,23,84,58,25,30.36,30.18,13,1,13,0.00
2013-3-14,73,49,31,37,31,26,85,55,24,30.39,30.21,8,1,8,0.00
2013-3-15,84,51,38,48,38,35,91,67,23,30.21,30.00,11,1,11,0.00
2013-3-16,84,64,45,55,47,42,96,59,30,30.00,29.88,12,2,12,0.00
2013-3-17,84,64,49,61,54,47,93,73,39,29.94,29.76,12,2,12,0.00
2013-3-18,90,68,56,67,62,54,98,82,39,29.94,29.71,19,2,19,0.91
2013-3-19,76,58,44,54,40,32,96,58,23,30.06,29.94,10,1,10,0.91
2013-3-20,70,55,40,37,31,23,63,42,23,30.12,30.00,13,2,13,0.91
2013-3-21,66,49,36,36,30,23,83,50,27,30.03,29.82,8,1,8,0.91
2013-3-22,52,48,44,48,42,32,93,79,49,29.88,29.76,8,2,8,0.37
2013-3-23,79,63,52,66,59,47,98,87,64,29.79,29.56,8,1,8,0.92
2013-3-24,63,54,41,60,44,24,98,75,37,29.94,29.56,19,3,19,0.12
2013-3-25,57,43,33,27,24,20,73,49,31,30.24,29.94,20,4,20,0.00
2013-3-26,56,40,30,28,24,21,74,53,34,30.33,30.21,13,2,13,0.00
2013-3-27,68,45,27,38,27,22,86,56,24,30.39,30.24,8,1,8,0.00
2013-3-28,78,52,32,45,33,27,87,55,22,30.30,30.18,9,1,9,0.00
2013-3-29,83,59,40,50,41,36,88,57,25,30.24,30.12,12,1,12,0.00
2013-3-30,76,61,49,59,51,46,94,72,39,30.12,29.91,10,1,11,0.00
2013-3-31,76,61,53,64,58,52,98,89,61,29.97,29.79,14,1,14,0.29
2013-4-1,83,64,54,63,51,40,98,70,25,30.06,29.88,7,1,7,0.00
2013-4-2,88,64,49,52,47,42,91,61,25,30.06,29.97,10,1,10,0.00
2013-4-3,62,51,46,50,44,36,97,80,47,30.03,29.91,7,1,7,0.58
2013-4-4,54,50,46,52,49,45,98,96,86,29.97,29.85,9,1,9,0.00
2013-4-5,72,54,45,50,46,41,98,76,36,30.12,29.97,9,2,9,0.00
2013-4-6,83,60,40,54,44,39,97,63,26,30.09,29.97,9,1,10,0.00
2013-4-7,82,63,47,59,51,45,95,70,37,30.06,29.94,10,1,10,0.00
2013-4-8,88,69,54,64,58,53,98,73,36,30.00,29.88,12,2,12,0.00
2013-4-9,92,75,66,72,66,63,98,77,43,30.00,29.88,14,3,14,0.00
2013-4-10,88,76,69,70,66,63,90,74,51,29.94,29.76,11,3,11,0.00
2013-4-11,74,67,51,70,64,46,98,91,67,29.79,29.62,13,2,13,0.58
2013-4-12,78,57,42,53,43,36,98,67,25,29.97,29.79,10,1,10,0.04
2013-4-13,86,63,44,61,47,41,94,63,26,30.00,29.85,8,0,8,0.00
2013-4-14,72,62,57,64,58,52,98,87,65,29.88,29.62,13,1,13,1.45
2013-4-15,89,71,57,70,64,56,98,81,43,29.94,29.76,8,1,8,0.00
2013-4-16,88,76,70,73,69,66,97,81,51,30.06,29.94,8,1,8,0.00
2013-4-17,92,76,68,72,68,65,98,79,46,30.06,29.91,9,1,9,0.00
2013-4-18,86,74,60,70,66,57,96,78,53,29.91,29.71,10,2,10,0.46
2013-4-19,60,51,42,57,40,32,97,69,36,30.12,29.82,13,3,13,0.33
2013-4-20,72,53,37,44,38,34,93,62,29,30.21,30.09,7,1,7,0.00
2013-4-21,77,59,44,48,42,38,87,59,28,30.21,30.09,6,1,6,0.00
2013-4-22,82,62,45,56,48,41,91,65,34,30.12,29.97,6,0,6,0.00
2013-4-23,80,69,60,64,61,55,91,77,54,30.06,29.94,6,1,6,0.00
2013-4-24,68,60,52,65,56,47,98,88,77,30.21,29.94,12,1,12,0.62
2013-4-25,71,57,47,47,44,39,90,64,32,30.30,30.18,8,1,8,0.05
2013-4-26,80,63,46,60,50,42,93,66,37,30.27,30.15,6,1,6,0.05
2013-4-27,83,71,63,67,63,58,94,77,53,30.15,29.97,8,1,8,0.05
2013-4-28,77,68,63,70,66,62,98,91,73,30.00,29.88,10,0,10,0.29
2013-4-29,80,69,61,68,63,58,98,83,50,29.97,29.85,4,0,4,0.05
2013-4-30,81,68,58,69,63,56,98,85,54,29.91,29.85,6,0,6,0.08
2013-5-1,71,66,63,70,65,63,98,98,92,29.94,29.85,4,0,4,1.04
2013-5-2,72,66,63,67,64,63,98,95,80,29.97,29.85,3,0,3,0.33
2013-5-3,65,55,42,65,54,41,98,95,84,30.00,29.85,13,2,13,0.99
2013-5-4,68,52,37,52,42,36,98,74,35,29.97,29.82,10,1,10,0.05
2013-5-5,60,52,46,48,43,37,95,74,48,29.94,29.79,12,2,12,0.00
2013-5-6,69,58,48,55,50,45,92,78,52,29.94,29.88,15,1,15,0.00
2013-5-7,74,62,49,60,53,47,98,76,49,30.00,29.88,7,1,7,0.00
2013-5-8,82,65,51,64,56,49,96,75,41,30.06,29.97,6,0,6,0.00
2013-5-9,83,66,57,68,60,55,97,83,50,30.09,30.00,6,0,6,0.00
2013-5-12,72,65,51,58,49,40,86,57,37,30.15,30.09,11,1,11,0.00
2013-5-13,76,61,46,54,47,40,92,64,32,30.24,30.12,6,0,6,0.00
2013-5-14,84,67,51,62,53,48,93,66,31,30.21,30.09,6,0,6,0.00
2013-5-15,84,72,57,64,59,54,93,66,42,30.15,29.97,5,0,5,0.00
2013-5-16,82,69,60,67,63,57,94,82,56,30.00,29.85,8,0,8,0.00
2013-5-17,83,74,69,72,70,67,98,87,67,29.97,29.88,6,0,6,0.00
2013-5-18,86,76,70,73,71,69,98,85,61,30.03,29.94,5,0,5,0.00
2013-5-19,88,77,70,72,70,67,98,82,51,30.00,29.91,6,0,6,0.00
2013-5-20,90,79,72,73,71,67,94,77,50,30.00,29.85,7,0,7,0.00
2013-5-21,89,79,70,73,69,65,95,74,49,29.94,29.76,7,1,7,0.00
2013-5-22,79,70,64,71,67,61,98,89,68,29.94,29.82,16,1,16,1.03
2013-5-23,86,73,63,76,68,62,98,84,49,30.03,29.91,5,0,5,0.00
2013-5-24,82,72,62,68,63,55,97,75,49,30.18,30.00,10,0,10,0.00
2013-5-25,81,68,57,61,56,50,89,69,37,30.24,30.12,4,0,4,0.00
2013-5-26,86,71,58,69,60,53,95,73,34,30.18,30.06,5,0,5,0.00
2013-5-27,87,73,60,72,65,57,96,77,51,30.12,29.97,6,0,6,0.00
2013-5-28,86,73,62,68,62,58,94,71,45,30.06,29.97,6,0,6,0.00
2013-5-29,87,75,64,75,68,59,95,82,57,30.03,29.91,6,0,6,0.00
2013-5-30,84,76,71,75,71,67,97,85,66,30.00,29.91,7,0,7,0.00
2013-5-31,85,77,72,75,72,70,97,87,67,30.00,29.88,5,0,5,0.00
2013-6-1,89,79,73,74,72,70,96,80,56,29.97,29.85,4,0,4,0.00
2013-6-2,82,74,67,73,69,65,98,86,59,29.97,29.85,12,0,12,1.00
2013-6-3,85,76,70,72,69,65,98,82,55,29.94,29.85,6,0,6,0.00
2013-6-4,88,78,68,75,71,65,95,81,60,29.94,29.82,0,0,0,0.00
2013-6-5,90,77,70,77,72,68,98,87,56,29.94,29.76,6,0,6,0.41
2013-6-6,85,72,68,77,70,67,98,94,68,29.85,29.74,11,0,11,3.50
2013-6-7,81,73,67,72,68,65,98,87,62,29.88,29.74,7,1,7,0.08
2013-6-8,84,73,64,73,68,62,98,85,60,29.97,29.88,2,0,2,0.16
2013-6-9,84,74,68,76,71,67,98,90,68,29.97,29.85,9,0,9,0.75
2013-6-10,88,78,68,75,71,68,98,82,53,29.97,29.91,6,0,6,0.00
2013-6-11,89,79,71,78,73,70,98,83,55,30.06,29.97,0,0,0,0.00
2013-6-12,92,80,71,78,72,68,97,79,47,30.09,29.97,2,0,2,0.00
2013-6-13,91,81,71,77,73,69,97,78,49,30.03,29.82,7,0,7,0.00
2013-6-14,86,78,68,76,68,60,96,75,42,29.94,29.85,8,0,8,0.09
2013-6-15,88,76,63,72,67,61,95,76,43,30.00,29.94,0,0,0,0.09
2013-6-16,89,78,69,77,72,67,95,83,53,30.03,29.94,4,0,4,0.09
2013-6-17,90,80,72,77,73,68,97,80,50,29.97,29.85,4,0,4,0.09
2013-6-18,86,78,72,74,71,65,94,80,54,29.97,29.85,10,0,10,0.09
2013-6-19,87,75,71,76,71,67,97,88,58,30.00,29.91,5,0,5,0.16
2013-6-20,88,77,68,76,71,68,98,82,55,30.09,30.00,3,0,3,0.09
2013-6-21,89,78,68,76,71,67,97,81,56,30.12,30.03,3,0,3,0.09
2013-6-22,89,76,69,76,70,64,96,84,53,30.12,29.97,10,0,10,0.00
2013-6-23,87,78,68,77,71,67,97,82,59,30.06,29.97,3,0,3,0.00
2013-6-24,90,77,71,77,72,66,97,86,49,30.12,30.03,5,0,5,0.00
2013-6-25,90,79,70,78,72,68,97,81,49,30.09,29.97,4,0,4,0.00
2013-6-26,91,81,73,77,72,66,97,77,46,30.03,29.91,4,0,4,0.00
2013-6-27,92,82,74,75,72,67,96,76,45,30.00,29.88,4,0,4,0.00
2013-6-28,92,82,73,76,73,68,94,75,51,29.88,29.71,6,0,6,0.21
2013-6-29,89,78,70,78,70,61,97,80,41,29.79,29.68,8,0,8,0.05
2013-6-30,87,75,65,74,65,56,96,74,36,29.79,29.71,9,0,9,0.00
2013-7-1,85,74,64,69,63,58,94,71,41,29.91,29.76,9,1,9,0.00
2013-7-2,85,74,64,69,62,55,94,70,37,30.00,29.88,7,0,7,0.00
2013-7-3,86,74,64,70,65,60,93,74,46,30.03,29.94,0,0,0,0.00
2013-7-4,87,76,69,72,68,64,96,78,49,29.97,29.88,3,0,3,0.00
2013-7-5,81,75,70,74,71,68,96,89,78,30.00,29.91,0,0,0,0.00
2013-7-6,84,75,69,74,71,68,98,87,67,30.03,29.94,0,0,0,0.00
2013-7-7,88,78,73,75,72,71,96,84,58,30.06,29.97,3,0,3,0.57
2013-7-8,87,78,73,78,74,72,98,87,64,30.15,30.03,0,0,0,0.00
2013-7-9,90,79,72,78,74,70,97,85,57,30.15,30.03,3,0,3,0.00
2013-7-10,89,78,74,80,74,69,97,91,56,30.06,29.91,3,0,4,0.13
2013-7-11,81,75,71,76,73,68,98,94,80,30.00,29.88,5,0,5,0.67
2013-7-12,88,77,71,75,71,65,98,83,48,29.94,29.85,8,0,8,0.00
2013-7-13,86,76,67,71,66,59,97,75,43,29.97,29.88,7,0,7,0.00
2013-7-14,86,75,69,74,70,67,96,85,62,30.00,29.88,0,0,0,0.00
2013-7-15,88,77,69,76,72,68,98,84,61,30.12,29.97,3,0,3,0.00
2013-7-16,88,78,72,74,72,70,96,81,57,30.18,30.09,4,0,4,0.00
2013-7-17,91,81,71,76,72,68,96,77,48,30.21,30.09,0,0,0,0.00
2013-7-18,88,76,72,76,72,68,96,86,64,30.15,30.00,8,0,8,0.03
2013-7-19,88,77,70,76,72,69,98,86,55,30.06,29.94,5,0,5,0.00
2013-7-20,90,78,70,76,71,67,97,81,52,29.97,29.88,4,0,4,0.00
2013-7-21,91,79,70,76,70,67,95,76,47,30.00,29.91,7,0,7,0.00
2013-7-22,90,79,73,77,72,68,94,79,53,30.03,29.91,7,0,7,0.00
2013-7-23,93,82,74,77,72,66,96,73,43,30.00,29.85,6,0,6,0.00
2013-7-24,84,78,74,75,73,66,96,85,65,29.94,29.85,0,0,0,0.17
2013-7-25,89,78,70,76,69,60,98,77,40,30.00,29.88,6,0,6,0.00
2013-7-26,89,76,65,71,66,59,94,73,40,30.03,29.94,6,0,6,0.00
2013-7-27,79,74,70,77,72,69,98,94,88,29.94,29.85,0,0,0,1.00
2013-7-28,87,75,71,75,71,69,98,90,56,29.94,29.50,5,0,5,0.04
2013-7-29,90,82,70,76,73,68,97,76,52,30.09,30.03,5,0,5,0.00
2013-7-30,92,81,72,78,74,70,96,82,54,30.12,30.00,3,0,3,0.00
2013-7-31,91,83,76,76,72,63,96,73,42,30.06,29.94,4,0,6,0.00
2013-8-1,93,83,75,76,72,67,96,74,44,29.97,29.88,8,0,8,0.00
2013-8-2,94,81,72,78,72,67,95,77,44,30.00,29.91,4,0,4,0.00
2013-8-3,92,82,74,78,74,69,95,78,49,30.03,29.94,4,0,5,0.00
2013-8-4,93,80,74,79,74,68,96,84,46,30.06,29.97,8,0,8,0.71
2013-8-5,92,80,74,81,75,69,98,87,54,30.00,29.91,8,0,8,0.53
2013-8-6,93,82,74,78,74,68,98,80,44,29.97,29.85,4,0,4,0.00
2013-8-7,92,82,74,78,75,72,96,81,54,29.94,29.85,4,0,4,0.00
2013-8-8,93,83,75,79,76,72,96,81,57,29.94,29.85,0,0,0,0.00
2013-8-9,94,82,76,80,75,70,96,79,52,30.00,29.91,8,0,8,0.00
2013-8-10,90,80,74,79,74,72,96,83,60,30.06,29.97,4,0,4,0.00
2013-8-11,90,79,73,78,73,70,96,85,56,30.09,30.03,4,0,4,0.21
2013-8-12,90,79,72,79,72,68,97,81,50,30.09,29.94,7,0,8,0.00
2013-8-13,88,76,72,80,73,70,98,92,62,30.00,29.91,11,0,11,1.54
2013-8-14,83,76,72,76,73,70,98,90,68,29.97,29.88,8,0,8,0.05
2013-8-15,86,75,67,70,67,60,96,78,44,29.97,29.91,5,0,5,0.05
2013-8-16,85,75,66,72,68,64,94,81,56,29.97,29.91,5,0,5,0.05
2013-8-17,81,73,69,70,68,66,94,84,62,30.00,29.94,5,0,5,0.05
2013-8-18,80,73,68,71,69,66,97,89,69,30.03,29.97,4,0,4,0.05
2013-8-19,84,76,71,73,71,69,98,88,62,30.03,29.94,6,0,6,0.05
2013-8-20,89,77,68,76,71,66,97,83,55,30.06,29.97,6,0,6,0.45
2013-8-21,84,77,72,78,74,71,98,92,76,30.12,30.03,3,0,3,0.05
2013-8-22,90,79,71,78,73,70,98,85,54,30.09,29.97,5,0,5,0.03
2013-8-23,92,79,71,78,72,69,98,81,49,30.03,29.91,6,0,6,0.00
2013-8-24,90,77,71,76,72,69,97,84,52,30.09,29.97,8,0,8,0.26
2013-8-25,86,77,71,76,72,70,98,85,63,30.18,30.09,6,0,6,0.00
2013-8-26,89,77,68,71,67,61,95,74,41,30.21,30.09,6,0,6,0.00
2013-8-27,86,73,62,70,62,57,94,72,41,30.12,30.03,6,0,6,0.00
2013-8-28,87,74,62,71,63,59,93,71,40,30.09,29.97,5,0,5,0.00
2013-8-29,91,76,65,73,66,61,93,73,41,30.09,29.97,5,0,5,0.00
2013-8-30,93,79,68,73,68,64,94,73,42,30.00,29.88,6,0,6,0.00
2013-8-31,94,79,70,74,70,65,94,75,40,29.97,29.82,5,0,5,0.00
2013-9-1,94,81,71,74,70,64,95,72,39,29.94,29.82,6,0,6,0.00
2013-9-2,91,80,72,75,71,65,95,77,43,29.94,29.85,8,0,8,0.00
2013-9-3,95,81,72,76,70,63,95,74,36,29.97,29.85,6,0,6,0.00
2013-9-4,91,77,71,75,71,66,96,83,46,30.06,29.94,4,0,4,0.00
2013-9-5,95,80,70,77,69,60,94,72,33,30.09,30.00,5,0,5,0.00
2013-9-6,94,80,70,75,69,63,93,74,38,30.09,29.97,5,0,5,0.00
2013-9-7,94,79,69,73,66,58,93,68,32,30.03,29.94,6,0,6,0.00
2013-9-8,95,74,66,72,64,57,92,76,30,30.00,29.88,6,0,6,0.00
2013-9-9,96,79,67,73,66,62,92,69,33,30.03,29.94,4,0,4,0.00
2013-9-10,96,79,69,75,68,63,92,74,37,30.09,30.00,7,0,7,0.04
2013-9-11,93,79,68,76,67,60,96,72,37,30.12,30.00,5,0,5,0.00
2013-9-12,94,78,67,74,64,57,94,68,32,30.06,29.88,6,0,6,0.00
2013-9-13,90,75,68,75,68,63,96,80,42,29.94,29.82,8,0,8,0.87
2013-9-14,85,71,61,68,60,53,95,71,35,29.97,29.88,7,0,7,0.00
2013-9-15,91,73,59,66,60,54,93,68,29,30.06,29.97,6,0,6,0.00
2013-9-16,91,76,66,73,65,58,92,71,34,30.09,29.97,6,0,6,0.00
2013-9-17,93,76,65,71,62,56,94,66,30,30.09,29.94,6,0,6,0.00
2013-9-18,88,76,66,72,67,59,91,75,54,30.06,29.97,6,0,6,0.00
2013-9-19,93,78,70,72,68,64,94,73,40,30.06,29.94,6,1,6,0.00
2013-9-20,90,77,72,80,72,68,97,85,52,29.97,29.76,8,0,8,1.20
2013-9-21,76,72,67,75,70,64,98,94,79,29.79,29.76,7,0,7,2.32
2013-9-22,78,67,58,64,56,50,93,71,39,29.85,29.76,8,1,8,0.00
2013-9-23,84,69,55,70,63,51,96,81,56,29.91,29.79,3,0,4,0.00
2013-9-24,77,73,71,76,72,70,98,97,91,29.91,29.79,8,0,8,2.54
2013-9-25,85,74,66,75,66,57,98,81,39,29.85,29.82,7,0,7,0.00
2013-9-26,84,71,60,70,62,56,96,75,40,30.00,29.85,8,0,8,0.00
2013-9-27,85,72,65,70,65,62,96,79,48,30.09,29.97,5,0,5,0.00
2013-9-28,83,70,63,65,61,56,93,75,42,30.12,30.03,4,0,4,0.00
2013-9-29,73,68,62,69,64,59,95,89,79,30.09,29.97,4,0,4,0.00
2013-9-30,82,73,67,72,69,66,98,89,66,30.00,29.91,5,0,5,0.17
2013-10-1,86,74,67,73,69,66,98,86,58,30.09,30.00,5,0,5,0.00
2013-10-2,82,74,70,75,70,68,98,88,63,30.12,30.00,4,0,4,0.04
2013-10-3,85,75,69,74,71,67,97,88,62,30.09,30.00,5,0,5,0.04
2013-10-4,90,77,71,75,71,65,97,82,46,30.09,30.00,6,0,6,0.00
2013-10-5,88,76,71,75,71,67,97,86,55,30.06,29.94,6,0,6,0.00
2013-10-6,73,68,58,73,63,52,98,85,58,30.00,29.88,11,1,11,0.08
2013-10-7,72,61,52,53,49,44,92,67,40,30.09,29.97,11,1,11,0.00
2013-10-8,75,62,51,53,50,45,92,68,37,30.09,30.03,7,1,7,0.00
2013-10-9,79,65,52,66,58,48,92,80,59,30.12,30.03,4,0,4,0.00
2013-10-10,83,68,1,69,63,0,97,84,46,30.15,30.03,5,0,5,0.00
2013-10-11,84,70,62,71,63,59,97,81,46,30.09,30.00,4,0,4,0.00
2013-10-12,87,72,62,73,65,60,96,81,44,30.09,30.00,8,0,8,0.00
2013-10-13,72,68,66,68,66,65,96,93,89,30.18,30.09,2,0,2,0.00
2013-10-14,85,73,64,62,60,53,89,66,41,30.15,30.06,0,0,0,0.00
2013-10-15,85,71,62,67,63,59,95,78,44,30.09,29.59,0,0,0,0.00
2013-10-16,83,71,66,71,68,64,98,89,59,30.03,29.94,0,0,0,0.17
2013-10-17,66,63,54,66,60,52,98,92,79,30.06,29.94,0,0,0,0.08
2013-10-18,72,59,49,61,54,48,98,84,49,30.09,29.94,0,0,0,0.00
2013-10-19,72,61,50,61,54,45,97,81,51,30.06,29.53,9,1,9,0.04
2013-10-20,70,53,40,50,42,36,95,70,33,30.09,30.00,6,0,6,0.04
2013-10-21,69,56,42,58,50,38,94,81,56,30.09,29.97,2,0,2,0.04
2013-10-22,73,61,51,62,54,46,98,79,50,30.03,29.97,9,1,9,0.00
2013-10-23,69,56,47,54,43,37,97,67,32,30.15,30.03,11,1,11,0.00
2013-10-24,76,57,42,52,45,38,89,67,35,30.30,30.12,8,1,8,0.00
2013-10-25,64,52,42,44,36,31,76,58,34,30.44,30.30,6,1,6,0.00
2013-10-26,71,52,37,48,40,32,86,65,33,30.33,30.15,4,0,4,0.00
2013-10-27,72,58,46,58,51,41,91,80,57,30.15,30.06,4,0,4,0.00
2013-10-28,76,65,59,67,61,56,98,87,60,30.21,30.09,4,0,4,0.04
2013-10-29,79,67,58,68,61,56,98,83,52,30.27,30.18,6,0,6,0.04
2013-10-30,78,67,60,67,62,58,97,86,59,30.24,30.03,6,0,6,0.04
2013-10-31,73,70,64,71,68,64,98,94,87,30.06,29.79,11,2,11,1.74
2013-11-1,71,62,51,64,54,42,98,77,36,29.94,29.85,7,1,7,0.04
2013-11-2,68,55,46,55,43,37,96,67,34,30.21,29.94,11,1,11,0.04
2013-11-3,66,50,39,46,39,30,92,70,37,30.27,30.15,6,0,6,0.04
2013-11-4,66,53,39,52,45,35,92,77,52,30.30,30.18,4,0,4,0.00
2013-11-5,76,63,57,55,52,49,84,69,47,30.27,30.15,7,1,7,0.00
2013-11-6,75,64,54,68,57,50,97,79,64,30.15,30.06,8,0,8,0.21
2013-11-7,63,52,40,61,41,33,96,71,39,30.36,30.15,13,3,13,0.00
2013-11-8,64,48,37,42,37,33,92,68,35,30.36,30.21,7,0,7,0.00
2013-11-9,66,54,45,49,44,37,87,70,36,30.30,30.18,6,0,6,0.00
2013-11-10,72,58,48,51,47,42,90,71,37,30.33,30.24,6,0,6,0.00
2013-11-11,74,57,43,55,46,39,95,70,35,30.27,30.18,5,0,5,0.00
2013-11-12,57,46,35,54,37,21,98,70,52,30.53,30.21,12,2,12,0.00
2013-11-13,54,38,29,27,21,19,71,51,29,30.59,30.41,6,1,6,0.00
2013-11-14,64,44,25,38,30,18,83,60,35,30.41,30.18,7,0,7,0.00
2013-11-15,64,56,48,60,51,38,97,84,68,30.18,30.03,3,0,3,0.13
2013-11-16,72,65,57,69,63,56,98,93,77,30.09,29.97,7,1,7,0.00
2013-11-17,78,70,67,72,69,66,98,94,78,30.00,29.88,6,1,6,0.00
2013-11-18,74,63,1,72,44,0,98,55,23,30.18,29.97,11,1,11,0.04
2013-11-19,59,48,36,38,30,26,73,51,29,30.24,30.09,11,1,11,0.04
2013-11-20,71,49,33,42,36,27,85,63,34,30.15,30.06,8,0,8,0.04
2013-11-21,73,58,46,59,52,40,93,81,54,30.24,30.15,6,1,6,0.04
2013-11-22,67,63,60,66,62,58,98,96,91,30.30,30.18,6,1,6,0.66
2013-11-23,60,50,39,59,47,30,98,92,69,30.41,30.21,12,2,12,0.42
2013-11-24,50,40,33,30,22,18,71,51,33,30.47,30.33,7,1,7,0.00
2013-11-25,45,40,36,44,33,18,98,76,47,30.33,30.00,6,0,6,2.28
2013-11-26,46,44,37,45,43,35,98,98,93,30.06,29.82,14,2,14,1.16
2013-11-27,43,35,25,35,22,17,93,60,39,30.41,30.06,17,3,17,0.95
2013-11-28,55,34,22,28,21,16,82,63,30,30.47,30.39,6,1,6,0.95
2013-11-29,62,38,24,35,24,19,88,61,26,30.53,30.41,4,0,4,0.00
2013-11-30,70,42,25,39,27,19,87,61,25,30.47,30.24,6,0,6,0.95
2013-12-1,70,49,32,48,38,26,86,69,37,30.24,29.97,4,0,4,0.95
2013-12-2,75,60,51,56,51,47,92,74,48,29.97,29.74,9,1,9,0.95
2013-12-3,80,66,55,66,58,52,98,80,44,29.79,29.71,11,1,11,0.00
2013-12-4,83,69,62,69,62,59,98,82,47,29.94,29.79,11,1,11,0.00
2013-12-5,84,69,53,72,62,49,98,80,48,30.03,29.91,11,2,11,0.00
2013-12-6,53,44,36,50,42,34,98,96,90,30.30,29.97,11,3,11,0.49
2013-12-7,36,34,32,35,31,29,98,89,78,30.41,30.24,9,2,9,0.00
2013-12-8,44,40,35,44,39,33,98,97,92,30.27,30.06,6,0,6,1.37
2013-12-9,47,43,38,44,42,38,98,96,84,30.21,30.09,6,1,6,0.13
2013-12-10,49,37,27,37,28,23,98,74,40,30.41,30.15,15,2,15,0.08
2013-12-11,63,36,26,39,27,22,97,74,27,30.47,30.36,7,0,7,0.00
2013-12-12,57,38,27,28,22,18,86,57,27,30.56,30.39,6,1,6,0.00
2013-12-13,57,41,24,42,27,18,81,60,37,30.39,29.94,8,2,8,0.04
2013-12-14,68,54,43,60,48,32,98,82,52,30.09,29.82,13,3,13,0.54
2013-12-15,43,37,27,32,27,23,85,67,56,30.30,30.09,15,2,15,0.00
2013-12-16,66,40,25,41,27,21,95,67,28,30.36,30.21,6,1,6,0.00
2013-12-17,69,43,28,42,31,23,94,65,31,30.33,30.21,9,1,9,0.00
2013-12-18,72,46,30,46,32,26,96,64,28,30.36,30.21,7,1,7,0.00
2013-12-19,72,53,34,53,43,29,88,70,44,30.21,30.03,10,2,10,0.00
2013-12-20,77,66,56,64,60,53,97,81,59,30.06,29.94,11,2,11,0.00
2013-12-21,81,72,57,65,62,54,94,74,52,29.94,29.71,18,5,18,1.08
2013-12-22,64,57,46,60,54,42,98,91,73,30.21,29.82,11,1,11,0.29
2013-12-23,45,39,30,42,29,24,89,67,48,30.47,30.18,12,4,12,0.00
2013-12-24,52,35,26,25,22,17,83,61,31,30.53,30.39,8,1,8,0.00
2013-12-25,54,35,22,27,21,16,82,60,30,30.41,30.30,8,1,8,0.00
2013-12-26,60,39,26,36,26,21,85,64,35,30.39,30.30,6,1,6,0.00
2013-12-27,56,42,29,37,30,24,89,65,35,30.44,30.33,3,0,4,0.00
2013-12-28,48,45,42,47,41,31,98,87,61,30.33,29.94,4,1,4,0.83
2013-12-29,63,48,39,46,40,32,98,77,36,30.12,29.97,6,1,6,0.00
2013-12-30,51,44,38,44,38,31,97,81,68,30.36,30.09,4,2,4,0.00
2013-12-31,49,40,35,33,30,27,82,69,47,30.44,30.30,4,3,4,0.00
2014-1-1,62,48,37,50,40,32,94,75,47,30.30,30.03,6,2,6,0.12
2014-1-2,55,45,29,55,34,15,98,67,42,30.36,29.94,13,4,13,0.17